M I D A S
Marine Information and Data Acquisition System
Tripno 1604 of the Zeeleeuw from 2008-09-10 06:20:15 to 2008-09-10 14:14:11
Back to CruiseResearch ActivitiesStationsMapUnderway DataData graphs

EquipmentUnitsComment
TimeDGPSUTC
LatitudeDGPSDM.mWGS84
LongitudeDGPSDM.mWGS84
HeadingGyrodeg 
SOGDGPSknotsSpeed over ground
COGDGPSdegCourse over ground
DepthEcho soundermeters200 kHz
Missing or incorrect values are displayed as -999
Navigation data collected by the RV Zeeleeuw from 2008-09-10 06:21:14 to 2008-09-10 12:35:52
Time Latitude Longitude Heading SOG COG Depth
2008-09-10 06:22:20 51°13.624 2°56.047 124.7 -999 206 9.5
2008-09-10 06:23:20 51°13.625 2°56.047 124.7 -999 240 9.5
2008-09-10 06:24:20 51°13.625 2°56.047 123.9 -999 184 9.5
2008-09-10 06:25:20 51°13.625 2°56.047 123.9 -999 282 9.5
2008-09-10 06:26:20 51°13.625 2°56.047 124.2 -999 14 9.4
2008-09-10 06:27:19 51°13.625 2°56.047 124.2 -999 326 9.5
2008-09-10 06:28:20 51°13.624 2°56.047 124.4 -999 33 9.5
2008-09-10 06:29:20 51°13.624 2°56.047 124 -999 273 9.5
2008-09-10 06:30:20 51°13.624 2°56.047 124 -999 185 9.5
2008-09-10 06:31:20 51°13.624 2°56.047 124 -999 271 9.5
2008-09-10 06:32:20 51°13.624 2°56.047 123.9 -999 14 9.5
2008-09-10 06:33:20 51°13.624 2°56.048 123.4 -999 141 9.5
2008-09-10 06:34:20 51°13.624 2°56.047 123.6 0.1 15 9.5
2008-09-10 06:35:20 51°13.624 2°56.047 123.6 -999 270 9.5
2008-09-10 06:36:20 51°13.623 2°56.047 123.7 -999 216 9.5
2008-09-10 06:37:20 51°13.623 2°56.047 123.6 -999 338 9.5
2008-09-10 06:38:20 51°13.623 2°56.047 123 -999 225 9.5
2008-09-10 06:39:20 51°13.623 2°56.048 124.4 -999 291 9.5
2008-09-10 06:40:20 51°13.623 2°56.047 123.9 -999 26 9.5
2008-09-10 06:41:20 51°13.623 2°56.048 124.2 -999 332 9.5
2008-09-10 06:42:20 51°13.623 2°56.048 124 -999 86 9.5
2008-09-10 06:43:20 51°13.623 2°56.047 123.5 -999 323 9.6
2008-09-10 06:44:20 51°13.623 2°56.047 123.4 -999 100 9.6
2008-09-10 06:45:20 51°13.623 2°56.047 123.7 -999 216 9.5
2008-09-10 06:46:20 51°13.623 2°56.047 124.1 -999 313 9.6
2008-09-10 06:47:20 51°13.624 2°56.047 124 -999 13 9.5
2008-09-10 06:48:20 51°13.624 2°56.047 123.3 -999 54 9.6
2008-09-10 06:49:20 51°13.624 2°56.048 124 -999 160 9.6
2008-09-10 06:50:20 51°13.624 2°56.048 123.7 -999 12 9.6
2008-09-10 06:51:20 51°13.624 2°56.048 123.8 -999 347 9.6
2008-09-10 06:52:20 51°13.624 2°56.048 123.7 -999 290 9.6
2008-09-10 06:53:20 51°13.625 2°56.048 124 -999 358 9.7
2008-09-10 06:54:20 51°13.624 2°56.048 123.4 -999 186 9.6
2008-09-10 06:55:20 51°13.623 2°56.047 123.3 -999 162 9.6
2008-09-10 06:56:20 51°13.623 2°56.047 123.3 -999 173 9.6
2008-09-10 06:57:20 51°13.623 2°56.047 123.7 -999 259 9.6
2008-09-10 06:58:20 51°13.622 2°56.047 123.7 -999 307 9.6
2008-09-10 06:59:20 51°13.623 2°56.048 124 -999 169 -999
2008-09-10 07:00:20 51°13.623 2°56.048 124.1 -999 225 9.6
2008-09-10 07:01:20 51°13.623 2°56.048 124.1 0.1 336 9.6
2008-09-10 07:02:20 51°13.623 2°56.048 123.9 -999 246 9.7
2008-09-10 07:03:20 51°13.624 2°56.048 124 -999 343 9.6
2008-09-10 07:04:20 51°13.624 2°56.048 123.8 -999 196 9.6
2008-09-10 07:05:20 51°13.624 2°56.048 124 -999 274 9.6
2008-09-10 07:06:20 51°13.624 2°56.047 123.3 -999 269 9.6
2008-09-10 07:07:20 51°13.624 2°56.047 123.4 -999 308 9.7
2008-09-10 07:08:20 51°13.624 2°56.047 124.3 0.1 336 9.6
2008-09-10 07:09:20 51°13.624 2°56.047 121 -999 149 9.6
2008-09-10 07:10:20 51°13.624 2°56.048 125 -999 3 9.7
2008-09-10 07:11:20 51°13.624 2°56.048 122.9 0.1 355 9.6
2008-09-10 07:12:20 51°13.623 2°56.048 122.8 -999 217 9.7
2008-09-10 07:13:20 51°13.623 2°56.048 123.3 -999 43 9.7
2008-09-10 07:14:20 51°13.623 2°56.048 124.2 -999 118 9.7
2008-09-10 07:15:20 51°13.623 2°56.048 123.6 -999 292 9.7
2008-09-10 07:16:20 51°13.623 2°56.048 121.3 -999 74 9.7
2008-09-10 07:17:20 51°13.623 2°56.048 123.2 -999 333 9.7
2008-09-10 07:18:20 51°13.623 2°56.048 122.8 -999 258 9.7
2008-09-10 07:19:20 51°13.623 2°56.048 122.1 0.1 201 9.7
2008-09-10 07:20:20 51°13.624 2°56.047 123.2 0.1 275 9.7
2008-09-10 07:21:20 51°13.625 2°56.045 123.5 0.1 281 9.6
2008-09-10 07:22:20 51°13.624 2°56.044 128.2 -999 211 9.7
2008-09-10 07:23:20 51°13.623 2°56.043 132.6 0.1 232 9.7
2008-09-10 07:24:20 51°13.622 2°56.041 139.1 -999 187 9.5
2008-09-10 07:25:20 51°13.597 2°56.075 138.4 3.7 138 12.2
2008-09-10 07:26:20 51°13.55 2°56.154 122.5 3.9 118 12.7
2008-09-10 07:27:20 51°13.549 2°56.245 69.4 1.9 67 11.8
2008-09-10 07:28:21 51°13.548 2°56.244 41.6 1 39 -999
2008-09-10 07:29:20 51°13.538 2°56.243 14 0.9 192 -999
2008-09-10 07:30:20 51°13.541 2°56.25 335.8 1.7 148 11.8
2008-09-10 07:31:20 51°13.526 2°56.262 322.8 2 315 12.1
2008-09-10 07:32:20 51°13.554 2°56.179 293.7 4.3 293 12.2
2008-09-10 07:33:20 51°13.586 2°56.063 296.2 5 297 12.7
2008-09-10 07:34:20 51°13.627 2°55.945 301.1 5.2 301 12.5
2008-09-10 07:35:20 51°13.68 2°55.816 304.5 7.1 304 11
2008-09-10 07:36:20 51°13.771 2°55.664 322.9 8.3 326 13.1
2008-09-10 07:37:20 51°13.899 2°55.575 338.6 4.6 338 12.8
2008-09-10 07:38:20 51°14.031 2°55.484 336.8 8.7 336 12.9
2008-09-10 07:39:20 51°14.159 2°55.383 331.2 8.6 330 13.2
2008-09-10 07:40:20 51°14.27 2°55.243 315.2 8.5 315 12.5
2008-09-10 07:41:20 51°14.358 2°55.067 303.9 8.6 304 13.1
2008-09-10 07:42:20 51°14.444 2°54.891 302.8 8.3 308 12.7
2008-09-10 07:43:20 51°14.529 2°54.721 305.4 8.2 310 12.3
2008-09-10 07:44:20 51°14.615 2°54.554 302.8 8.1 308 11.9
2008-09-10 07:45:20 51°14.695 2°54.38 298.5 8.1 304 11.9
2008-09-10 07:46:20 51°14.77 2°54.203 296.8 8.1 302 11.7
2008-09-10 07:47:20 51°14.849 2°54.009 299.4 10 303 11.2
2008-09-10 07:48:20 51°14.941 2°53.78 297.3 8.6 302 11.3
2008-09-10 07:49:20 51°14.976 2°53.691 256.8 0.8 20 11.5
2008-09-10 07:50:20 51°14.988 2°53.705 248.1 0.9 41 11.4
2008-09-10 07:51:20 51°14.999 2°53.653 275 5.1 287 11.4
2008-09-10 07:52:20 51°15.031 2°53.463 280 8.8 284 11.6
2008-09-10 07:53:20 51°15.068 2°53.281 289.5 3.9 303 11.9
2008-09-10 07:54:20 51°15.107 2°53.254 330.7 2.3 352 11.8
2008-09-10 07:55:20 51°15.144 2°53.251 331.8 1.9 -999 12
2008-09-10 07:56:20 51°15.175 2°53.25 324.4 2.1 348 11.9
2008-09-10 07:57:20 51°15.207 2°53.174 278.5 5.3 287 12.1
2008-09-10 07:58:20 51°15.231 2°53.008 277.6 6.9 283 12.2
2008-09-10 07:59:20 51°15.256 2°52.823 277.3 7.2 282 12.3
2008-09-10 08:00:20 51°15.282 2°52.636 277.9 7.3 282 12.6
2008-09-10 08:01:20 51°15.309 2°52.447 278 7.3 283 12.9
2008-09-10 08:02:20 51°15.336 2°52.258 278.5 7.3 283 13.1
2008-09-10 08:03:17 51°15.354 2°52.078 271.8 7.2 276 13.4
2008-09-10 08:04:17 51°15.362 2°51.966 264.8 2.5 277 13.7
2008-09-10 08:05:16 51°15.369 2°51.951 252 0.5 332 13.7
2008-09-10 08:06:17 51°15.377 2°51.948 246.1 0.4 -999 13.7
2008-09-10 08:07:16 51°15.384 2°51.95 246.3 0.5 9 13.7
2008-09-10 08:08:17 51°15.393 2°51.956 245.4 0.6 26 13.7
2008-09-10 08:09:17 51°15.393 2°51.931 250.6 2.4 258 13.7
2008-09-10 08:10:16 51°15.363 2°51.771 250.7 9.1 252 13.7
2008-09-10 08:11:17 51°15.323 2°51.494 262.9 11.1 266 13.9
2008-09-10 08:12:16 51°15.317 2°51.203 266.8 11.2 270 14.2
2008-09-10 08:13:17 51°15.321 2°50.901 270.6 11.3 272 14.2
2008-09-10 08:14:16 51°15.321 2°50.607 267.1 11.3 270 14.4
2008-09-10 08:15:17 51°15.314 2°50.305 266.2 11.2 269 14.5
2008-09-10 08:16:16 51°15.31 2°50.013 266.1 11.2 269 14.4
2008-09-10 08:17:16 51°15.313 2°49.715 268.6 11.3 271 14.5
2008-09-10 08:18:17 51°15.315 2°49.411 268.4 11.3 271 14.5
2008-09-10 08:19:16 51°15.314 2°49.117 267.3 11.2 270 14.7
2008-09-10 08:20:17 51°15.309 2°48.816 264.3 11.1 267 14.6
2008-09-10 08:21:16 51°15.304 2°48.524 268.6 11.2 271 13.9
2008-09-10 08:22:17 51°15.305 2°48.22 267.1 11.3 269 12.2
2008-09-10 08:23:16 51°15.303 2°47.924 267.6 11.3 269 11.5
2008-09-10 08:24:17 51°15.299 2°47.619 265.3 11.3 268 11.6
2008-09-10 08:25:16 51°15.295 2°47.325 266.8 11.3 268 12.1
2008-09-10 08:26:17 51°15.288 2°47.023 266.6 11.2 269 13
2008-09-10 08:27:16 51°15.284 2°46.731 266.4 11.2 269 13.9
2008-09-10 08:28:17 51°15.281 2°46.428 266.8 11.2 269 15.1
2008-09-10 08:29:16 51°15.275 2°46.135 263.6 11.2 266 16
2008-09-10 08:30:17 51°15.263 2°45.835 264.2 11.1 267 17
2008-09-10 08:31:16 51°15.255 2°45.545 266.5 11.2 269 17.7
2008-09-10 08:32:16 51°15.257 2°45.249 268.2 11.2 271 18.5
2008-09-10 08:33:16 51°15.26 2°44.952 267.7 11.2 271 19.6
2008-09-10 08:34:17 51°15.256 2°44.651 265.7 11.2 270 19.8
2008-09-10 08:35:16 51°15.257 2°44.36 266.8 11.2 270 18.7
2008-09-10 08:36:17 51°15.253 2°44.059 267.3 11.3 270 17
2008-09-10 08:37:17 51°15.255 2°43.761 266.9 11.3 270 15.1
2008-09-10 08:38:17 51°15.25 2°43.462 264.4 11.2 267 13.7
2008-09-10 08:39:16 51°15.241 2°43.17 262.3 11.2 266 13.7
2008-09-10 08:40:17 51°15.228 2°42.869 263.9 11.2 267 14.6
2008-09-10 08:41:16 51°15.222 2°42.577 265.2 11.2 268 15.2
2008-09-10 08:42:17 51°15.208 2°42.276 262 11.1 265 13
2008-09-10 08:43:17 51°15.2 2°41.978 265 11.3 268 13.7
2008-09-10 08:44:17 51°15.193 2°41.678 265.5 11.3 268 13.5
2008-09-10 08:45:16 51°15.182 2°41.384 263.1 11.3 267 13.3
2008-09-10 08:46:16 51°15.17 2°41.086 264.9 11.3 268 12.8
2008-09-10 08:47:17 51°15.164 2°40.781 265 11.3 268 13.4
2008-09-10 08:48:16 51°15.152 2°40.488 261.9 11.2 265 13.5
2008-09-10 08:49:17 51°15.14 2°40.186 263.4 11.2 267 14.8
2008-09-10 08:50:16 51°15.13 2°39.893 263.3 11.2 267 16.8
2008-09-10 08:51:17 51°15.128 2°39.59 265.9 11.3 270 18.1
2008-09-10 08:52:16 51°15.126 2°39.295 265.6 11.3 269 19.2
2008-09-10 08:53:17 51°15.121 2°38.99 264.8 11.3 267 19.4
2008-09-10 08:54:17 51°15.11 2°38.69 261.9 11.3 265 18.7
2008-09-10 08:55:17 51°15.1 2°38.391 265.5 11.3 268 17
2008-09-10 08:56:17 51°15.089 2°38.09 264.7 11.3 267 13.9
2008-09-10 08:57:17 51°15.102 2°37.795 276.4 11.2 280 12.1
2008-09-10 08:58:17 51°15.142 2°37.503 280 11.3 283 12.1
2008-09-10 08:59:17 51°15.183 2°37.212 279.7 11.2 284 13.2
2008-09-10 09:00:17 51°15.225 2°36.919 277.6 11.3 282 15.7
2008-09-10 09:01:17 51°15.263 2°36.627 275.9 11.3 281 14.9
2008-09-10 09:02:17 51°15.304 2°36.333 279.9 11.5 285 17.1
2008-09-10 09:03:17 51°15.36 2°36.042 282 11.5 287 19.7
2008-09-10 09:04:17 51°15.416 2°35.752 281.3 11.5 287 25.5
2008-09-10 09:05:17 51°15.47 2°35.462 280.3 11.4 285 27.1
2008-09-10 09:06:17 51°15.522 2°35.169 281.5 11.5 287 27.4
2008-09-10 09:07:17 51°15.571 2°34.877 277.3 11.4 283 27.9
2008-09-10 09:08:17 51°15.614 2°34.583 277.2 11.4 282 27.7
2008-09-10 09:09:17 51°15.654 2°34.285 277.9 11.5 281 25.8
2008-09-10 09:10:17 51°15.694 2°33.986 281.6 11.6 284 20.1
2008-09-10 09:11:17 51°15.737 2°33.687 278.6 11.5 280 13.2
2008-09-10 09:12:17 51°15.768 2°33.387 277.3 11.4 279 11.3
2008-09-10 09:13:17 51°15.799 2°33.089 276.7 11.3 278 10.3
2008-09-10 09:14:17 51°15.829 2°32.792 277.2 11.3 279 9.8
2008-09-10 09:15:17 51°15.855 2°32.496 272.9 11.2 275 10.3
2008-09-10 09:16:17 51°15.868 2°32.197 272.1 11.2 275 20.2
2008-09-10 09:17:17 51°15.817 2°31.922 242.3 10.9 244 24.6
2008-09-10 09:18:17 51°15.732 2°31.668 237 10.8 239 26.3
2008-09-10 09:19:17 51°15.625 2°31.439 227.8 10.8 228 24.9
2008-09-10 09:20:17 51°15.491 2°31.249 217.6 10.8 217 22.3
2008-09-10 09:21:17 51°15.341 2°31.087 212.6 10.8 213 19
2008-09-10 09:22:17 51°15.19 2°30.928 216 10.9 215 18
2008-09-10 09:23:17 51°15.041 2°30.764 213.8 10.8 214 15.4
2008-09-10 09:24:17 51°14.891 2°30.603 214.7 10.9 215 14.2
2008-09-10 09:25:17 51°14.768 2°30.462 216.7 6.9 216 13
2008-09-10 09:26:17 51°14.691 2°30.377 216.1 5 214 12.9
2008-09-10 09:27:17 51°14.625 2°30.309 215.5 4.6 212 11.5
2008-09-10 09:28:17 51°14.562 2°30.247 216.7 4 211 12.2
2008-09-10 09:29:17 51°14.514 2°30.222 200 2.6 188 12.2
2008-09-10 09:30:17 51°14.474 2°30.207 209.7 2.6 201 12.2
2008-09-10 09:31:17 51°14.427 2°30.192 200.2 3.1 192 12
2008-09-10 09:32:17 51°14.4 2°30.186 214 1.2 59 12
2008-09-10 09:33:20 51°14.41 2°30.212 214.4 1.1 59 4.8
2008-09-10 09:34:18 51°14.417 2°30.231 217.9 0.3 49 12.4
2008-09-10 09:35:16 51°14.416 2°30.228 234.7 0.2 251 12.4
2008-09-10 09:36:17 51°14.418 2°30.226 241.5 0.2 6 12.5
2008-09-10 09:37:17 51°14.419 2°30.225 237.8 -999 232 12.4
2008-09-10 09:38:17 51°14.419 2°30.225 230 -999 86 12.5
2008-09-10 09:39:17 51°14.419 2°30.227 225.8 0.1 151 12.4
2008-09-10 09:40:17 51°14.418 2°30.228 225.7 0.1 170 12.4
2008-09-10 09:41:17 51°14.418 2°30.229 229 0.1 40 12.4
2008-09-10 09:42:17 51°14.419 2°30.225 234.8 0.2 281 12.4
2008-09-10 09:43:17 51°14.421 2°30.222 232.1 0.1 36 12.4
2008-09-10 09:44:17 51°14.421 2°30.226 221.4 0.2 134 12.4
2008-09-10 09:45:17 51°14.418 2°30.228 218.2 0.2 172 12.4
2008-09-10 09:46:17 51°14.417 2°30.229 224.3 0.1 28 12.3
2008-09-10 09:47:17 51°14.419 2°30.229 231.3 0.1 326 12.4
2008-09-10 09:48:17 51°14.42 2°30.226 232.7 0.1 273 12.4
2008-09-10 09:49:17 51°14.42 2°30.226 228.8 0.1 33 12.3
2008-09-10 09:50:17 51°14.42 2°30.226 223.2 0.1 148 12.3
2008-09-10 09:51:17 51°14.419 2°30.228 222 0.1 144 12.3
2008-09-10 09:52:17 51°14.419 2°30.229 222.2 0.1 167 12.3
2008-09-10 09:53:17 51°14.418 2°30.229 226.4 -999 253 12.3
2008-09-10 09:54:17 51°14.419 2°30.228 231.2 0.1 318 12.3
2008-09-10 09:55:17 51°14.42 2°30.226 233.6 0.1 297 12.3
2008-09-10 09:56:16 51°14.42 2°30.225 228.8 -999 71 12.3
2008-09-10 09:57:17 51°14.421 2°30.227 225.4 -999 51 12.2
2008-09-10 09:58:17 51°14.419 2°30.228 220.1 0.2 148 12.3
2008-09-10 09:59:16 51°14.417 2°30.231 219.8 0.1 122 12.2
2008-09-10 10:00:17 51°14.416 2°30.23 228.5 0.1 301 12.3
2008-09-10 10:01:17 51°14.419 2°30.228 237.9 0.2 321 12.3
2008-09-10 10:02:17 51°14.421 2°30.224 235.9 0.2 299 12.3
2008-09-10 10:03:16 51°14.421 2°30.222 229.8 0.1 353 12.3
2008-09-10 10:04:17 51°14.421 2°30.224 221 0.1 100 12.2
2008-09-10 10:05:17 51°14.419 2°30.228 215.5 0.2 136 12.3
2008-09-10 10:06:17 51°14.417 2°30.231 217.8 0.1 186 12.3
2008-09-10 10:07:16 51°14.416 2°30.231 229.9 0.1 347 12.2
2008-09-10 10:08:17 51°14.419 2°30.228 239.6 0.2 294 12.2
2008-09-10 10:09:17 51°14.421 2°30.223 235.8 0.1 314 12.2
2008-09-10 10:10:17 51°14.422 2°30.222 227.9 0.1 82 12.2
2008-09-10 10:11:17 51°14.421 2°30.225 216.9 0.2 136 12.2
2008-09-10 10:12:16 51°14.419 2°30.227 215.9 0.2 138 12.1
2008-09-10 10:13:17 51°14.418 2°30.229 222.2 0.1 173 12.2
2008-09-10 10:14:17 51°14.419 2°30.228 230.5 0.1 337 12.2
2008-09-10 10:15:17 51°14.42 2°30.225 235.7 0.2 300 12.1
2008-09-10 10:16:17 51°14.421 2°30.223 231 0.1 314 12.1
2008-09-10 10:17:16 51°14.421 2°30.223 225.8 0.1 85 12.2
2008-09-10 10:18:17 51°14.421 2°30.225 222.2 0.1 137 12.1
2008-09-10 10:19:17 51°14.42 2°30.226 220.5 0.2 145 12.1
2008-09-10 10:20:17 51°14.419 2°30.227 222.7 -999 225 12.1
2008-09-10 10:21:17 51°14.42 2°30.226 229.5 0.1 305 12.1
2008-09-10 10:22:16 51°14.42 2°30.225 230.6 0.1 315 12.1
2008-09-10 10:23:17 51°14.421 2°30.226 226.5 0.1 153 12.1
2008-09-10 10:24:17 51°14.419 2°30.226 226.8 0.1 153 12.1
2008-09-10 10:25:17 51°14.42 2°30.225 230.4 0.1 16 12.1
2008-09-10 10:26:17 51°14.421 2°30.225 230.4 -999 273 12.1
2008-09-10 10:27:16 51°14.421 2°30.223 229.3 -999 238 12.2
2008-09-10 10:28:17 51°14.421 2°30.224 227.6 -999 86 12.1
2008-09-10 10:29:17 51°14.421 2°30.224 227.4 -999 141 12
2008-09-10 10:30:17 51°14.421 2°30.225 225.9 0.1 107 12
2008-09-10 10:31:17 51°14.421 2°30.225 226.4 -999 174 12
2008-09-10 10:32:16 51°14.42 2°30.225 227.8 -999 102 12.1
2008-09-10 10:33:17 51°14.42 2°30.228 226.3 0.1 146 12
2008-09-10 10:34:17 51°14.419 2°30.226 229.5 0.1 285 12
2008-09-10 10:35:17 51°14.42 2°30.224 233.7 0.2 349 12.1
2008-09-10 10:36:17 51°14.421 2°30.222 232.3 -999 259 12
2008-09-10 10:37:16 51°14.421 2°30.222 225.6 0.1 95 12
2008-09-10 10:38:17 51°14.421 2°30.225 222.5 0.1 82 12
2008-09-10 10:39:17 51°14.419 2°30.227 224.8 0.1 178 11.9
2008-09-10 10:40:17 51°14.419 2°30.227 228.5 0.1 90 11.9
2008-09-10 10:41:17 51°14.42 2°30.227 229.4 -999 264 11.9
2008-09-10 10:42:16 51°14.42 2°30.225 229.6 -999 281 12
2008-09-10 10:43:17 51°14.42 2°30.225 229.3 -999 50 11.9
2008-09-10 10:44:17 51°14.42 2°30.226 228.3 0.1 227 12
2008-09-10 10:45:17 51°14.42 2°30.225 229.2 -999 216 12
2008-09-10 10:46:17 51°14.42 2°30.225 230.1 0.1 14 11.9
2008-09-10 10:47:17 51°14.42 2°30.225 228.4 -999 301 11.9
2008-09-10 10:48:16 51°14.42 2°30.225 227.7 -999 256 11.9
2008-09-10 10:49:17 51°14.42 2°30.225 227.7 0.1 46 11.9
2008-09-10 10:50:17 51°14.42 2°30.225 227.2 0.1 226 11.9
2008-09-10 10:51:17 51°14.42 2°30.225 229.2 -999 48 11.9
2008-09-10 10:52:17 51°14.421 2°30.224 229 0.1 330 12
2008-09-10 10:53:17 51°14.42 2°30.224 226.6 -999 174 11.9
2008-09-10 10:54:17 51°14.42 2°30.225 224.4 -999 218 11.8
2008-09-10 10:55:17 51°14.419 2°30.226 223.1 -999 90 11.9
2008-09-10 10:56:17 51°14.419 2°30.227 223 0.1 146 11.9
2008-09-10 10:57:17 51°14.418 2°30.227 226.2 0.1 166 11.8
2008-09-10 10:58:17 51°14.418 2°30.227 228.3 0.1 297 11.9
2008-09-10 10:59:17 51°14.418 2°30.227 228.8 -999 344 11.8
2008-09-10 11:00:17 51°14.419 2°30.227 229.2 0.1 283 11.8
2008-09-10 11:01:17 51°14.419 2°30.227 227.6 -999 314 11.9
2008-09-10 11:02:17 51°14.419 2°30.228 228.2 -999 41 11.8
2008-09-10 11:03:17 51°14.419 2°30.228 229 -999 330 11.8
2008-09-10 11:04:17 51°14.419 2°30.228 230.7 -999 270 11.8
2008-09-10 11:05:17 51°14.413 2°30.216 227.8 0.9 230 11.8
2008-09-10 11:06:17 51°14.403 2°30.199 227.3 0.8 227 11.7
2008-09-10 11:07:17 51°14.398 2°30.189 226.2 0.3 217 11.4
2008-09-10 11:08:17 51°14.396 2°30.184 227.8 0.6 235 11.1
2008-09-10 11:09:17 51°14.398 2°30.154 273.3 1.7 296 9.8
2008-09-10 11:10:17 51°14.434 2°30.122 337.5 3.2 354 10.1
2008-09-10 11:11:17 51°14.49 2°30.153 34 4.1 36 9.9
2008-09-10 11:12:17 51°14.539 2°30.226 47.5 3.7 45 11.4
2008-09-10 11:13:17 51°14.58 2°30.289 42.3 3.3 42 11.1
2008-09-10 11:14:17 51°14.619 2°30.343 36.8 2.9 37 11.7
2008-09-10 11:15:17 51°14.657 2°30.393 35.3 2.8 35 12.1
2008-09-10 11:16:16 51°14.691 2°30.433 39.6 2.7 39 11.9
2008-09-10 11:17:17 51°14.724 2°30.479 46.3 2.6 43 11.6
2008-09-10 11:18:17 51°14.755 2°30.527 50.8 2.6 46 12.1
2008-09-10 11:19:17 51°14.785 2°30.576 50.3 2.6 46 12.2
2008-09-10 11:20:17 51°14.815 2°30.624 47.6 2.6 45 11.7
2008-09-10 11:21:17 51°14.844 2°30.672 49.8 2.5 46 10.9
2008-09-10 11:22:17 51°14.871 2°30.723 55.3 2.5 49 11.9
2008-09-10 11:23:17 51°14.896 2°30.775 63.1 2.4 55 12.6
2008-09-10 11:24:17 51°14.917 2°30.831 69.9 2.4 60 12.1
2008-09-10 11:25:16 51°14.937 2°30.883 62.3 2.4 55 11.7
2008-09-10 11:26:17 51°14.962 2°30.933 50.9 2.3 49 11.2
2008-09-10 11:27:17 51°14.989 2°30.978 45.1 2.4 45 10.9
2008-09-10 11:28:17 51°15.018 2°31.02 38.1 2.4 40 11.1
2008-09-10 11:29:17 51°15.05 2°31.057 29.5 2.3 33 11.6
2008-09-10 11:30:17 51°15.083 2°31.088 16.9 2.3 23 12.4
2008-09-10 11:31:17 51°15.125 2°31.09 328.7 2.6 344 14.4
2008-09-10 11:32:17 51°15.155 2°31.049 283.3 2.3 301 13.7
2008-09-10 11:33:17 51°15.153 2°30.996 228.5 2 233 14.8
2008-09-10 11:34:17 51°15.115 2°30.967 205 2.8 201 13.9
2008-09-10 11:35:17 51°15.073 2°30.935 214 2.7 212 14.2
2008-09-10 11:36:16 51°15.041 2°30.901 214.8 2.2 212 12.9
2008-09-10 11:37:17 51°15.008 2°30.878 205 2.1 197 13.5
2008-09-10 11:38:17 51°14.977 2°30.861 206.5 2 200 12.8
2008-09-10 11:39:17 51°14.946 2°30.844 209 1.9 201 12.3
2008-09-10 11:40:17 51°14.918 2°30.824 212.4 1.9 206 11.9
2008-09-10 11:41:17 51°14.89 2°30.802 213.8 1.8 208 11.9
2008-09-10 11:42:17 51°14.863 2°30.779 212.5 1.9 205 12
2008-09-10 11:43:16 51°14.838 2°30.757 218.7 1.7 215 11.8
2008-09-10 11:44:17 51°14.815 2°30.726 225.3 1.7 224 11.5
2008-09-10 11:45:17 51°14.793 2°30.695 221.6 1.8 220 10.5
2008-09-10 11:46:17 51°14.767 2°30.667 215.1 1.8 210 10.2
2008-09-10 11:47:16 51°14.74 2°30.642 213.5 1.9 210 10.4
2008-09-10 11:48:17 51°14.711 2°30.617 216 1.9 211 10.6
2008-09-10 11:49:16 51°14.685 2°30.59 218.6 1.8 215 10.7
2008-09-10 11:50:17 51°14.66 2°30.56 221.7 1.9 219 10.8
2008-09-10 11:51:17 51°14.634 2°30.528 220.9 1.9 220 10.7
2008-09-10 11:52:17 51°14.609 2°30.496 221 2 219 10.7
2008-09-10 11:53:17 51°14.584 2°30.462 221.7 2 221 10.9
2008-09-10 11:54:17 51°14.558 2°30.429 220.3 2 218 11.3
2008-09-10 11:55:17 51°14.531 2°30.396 220.7 2 218 11.5
2008-09-10 11:56:17 51°14.505 2°30.362 220.3 2 217 11.5
2008-09-10 11:57:17 51°14.478 2°30.327 220.1 2.1 220 11.2
2008-09-10 11:58:17 51°14.451 2°30.292 219.5 2.1 217 10.8
2008-09-10 11:59:17 51°14.421 2°30.263 212 2.1 207 11.1
2008-09-10 12:00:17 51°14.389 2°30.237 211.9 2.1 207 11.3
2008-09-10 12:01:17 51°14.358 2°30.213 211.3 2.1 205 11.7
2008-09-10 12:02:17 51°14.328 2°30.188 212.9 2.1 209 11.4
2008-09-10 12:03:17 51°14.298 2°30.161 213.6 2.1 211 10.5
2008-09-10 12:04:17 51°14.268 2°30.133 214.1 2.1 211 10.2
2008-09-10 12:05:17 51°14.237 2°30.105 213.7 2.1 211 10.5
2008-09-10 12:06:17 51°14.207 2°30.076 213.5 2.2 210 9.9
2008-09-10 12:07:17 51°14.176 2°30.047 213.6 2.2 209 9.3
2008-09-10 12:08:17 51°14.145 2°30.017 213.4 2.2 211 9.5
2008-09-10 12:09:17 51°14.116 2°29.984 226.9 2.1 229 9.9
2008-09-10 12:10:17 51°14.112 2°29.928 278.9 2.4 290 10.6
2008-09-10 12:11:17 51°14.149 2°29.89 343.7 3 354 11.1
2008-09-10 12:12:17 51°14.2 2°29.921 39.7 3.7 38 11.3
2008-09-10 12:13:17 51°14.247 2°29.99 42.8 3.7 43 10.2
2008-09-10 12:14:17 51°14.291 2°30.048 38.2 3.3 38 9.2
2008-09-10 12:15:17 51°14.335 2°30.095 29.4 3.1 29 9.6
2008-09-10 12:16:17 51°14.38 2°30.134 28.5 3 30 9.3
2008-09-10 12:17:16 51°14.419 2°30.173 33.9 2.7 35 10.3
2008-09-10 12:18:17 51°14.454 2°30.212 35.2 2.4 35 11.1
2008-09-10 12:19:18 51°14.459 2°30.218 37.3 0.3 220 -999
2008-09-10 12:20:18 51°14.458 2°30.219 33.7 0.1 57 11.1
2008-09-10 12:21:16 51°14.461 2°30.224 30.7 0.3 55 11
2008-09-10 12:22:17 51°14.465 2°30.231 26.8 0.3 40 10.9
2008-09-10 12:23:17 51°14.469 2°30.24 19.4 0.4 46 11.1
2008-09-10 12:24:16 51°14.474 2°30.25 12 0.5 48 10.9
2008-09-10 12:25:17 51°14.472 2°30.257 351.3 0.4 121 10.9
2008-09-10 12:26:17 51°14.467 2°30.267 333.6 0.6 125 10.9
2008-09-10 12:27:17 51°14.464 2°30.276 309.2 0.3 104 10.7
2008-09-10 12:28:17 51°14.467 2°30.279 283.3 0.3 350 10.8
2008-09-10 12:29:16 51°14.472 2°30.277 270.5 0.3 349 10.7
2008-09-10 12:30:17 51°14.477 2°30.275 259.4 0.3 339 10.8
2008-09-10 12:31:17 51°14.479 2°30.273 243.8 0.1 335 10.8
2008-09-10 12:32:17 51°14.48 2°30.273 228.4 0.1 61 10.7
2008-09-10 12:33:17 51°14.48 2°30.275 218.3 0.1 137 10.7
2008-09-10 12:34:17 51°14.478 2°30.274 216.5 0.1 209 10.7
2008-09-10 12:35:17 51°14.476 2°30.275 217 0.2 147 10.7